Hyundai Komipo — 3ENI8 — position and weather

sailwx.info

Track history (hours):
 
Tides and Currents Weather Stations Pressure Air Temp Water Temp Dewpoint Dewpoint Depression Visibility Wind Speed Wind Dir Waves Ship Positions

Hyundai Komipo

Last reported at 2018-May-30 04:20 UTC. Time now 2018-Jun-21 22:09 UTC.
Position S 32°35' E 152°42'.
Warning: this ship's position is 22 days out of date.

Length 273 m; draft 15.1 m.

Type: Cargo ship. MMSI: 374148000.

Date/timePositionNaut miles runAvg speedWind from/ knotsBaromVisibWave heightAir tempDewpointWater temp
2018-May-30 04:20S 32°35' E 152°42'3 9.6
2018-May-30 04:00S 32°37' E 152°39'5 9.3
2018-May-30 03:30S 32°41' E 152°35'5 9.1
2018-May-30 03:00S 32°44' E 152°32'4 8.9
2018-May-30 02:30S 32°47' E 152°28'4 8.3
2018-May-30 02:00S 32°50' E 152°25'510.5
2018-May-30 01:30S 32°52' E 152°19'611.4
2018-May-30 01:00S 32°54' E 152°13'611.8
2018-May-30 00:30S 32°57' E 152°06'611.9
2018-May-30 00:00S 32°59' E 151°60'611.2
2018-May-29 23:30S 32°60' E 151°53'5 9.3
2018-May-29 23:00S 32°56' E 151°49'2 4.4
2018-May-29 22:30S 32°55' E 151°47'2 3.3
2018-May-29 22:00S 32°54' E 151°46'1 2.5
2018-May-29 21:30S 32°53' E 151°45'0 0.1
2018-May-29 20:58S 32°53' E 151°45'0 0.0
2018-May-29 20:28S 32°53' E 151°45'0 0.0
2018-May-29 19:58S 32°53' E 151°45'0 0.0
2018-May-29 19:28S 32°53' E 151°45'0 0.0
2018-May-29 18:58S 32°53' E 151°45'0 0.0
2018-May-29 18:28S 32°53' E 151°45'0 0.0
2018-May-29 17:58S 32°53' E 151°45'0 0.0
2018-May-29 17:28S 32°53' E 151°45'0 0.0
2018-May-29 16:59S 32°53' E 151°45'0 0.0
2018-May-29 16:30S 32°53' E 151°45'0 0.0
2018-May-29 16:00S 32°53' E 151°45'0 0.0
2018-May-29 15:30S 32°53' E 151°45'0 0.0
2018-May-29 14:59S 32°53' E 151°45'0 0.0
2018-May-29 14:29S 32°53' E 151°45'0 0.0
2018-May-29 13:56S 32°53' E 151°45'0 0.0
2018-May-29 13:29S 32°53' E 151°45'0 0.0
2018-May-29 12:59S 32°53' E 151°45'0 0.0
2018-May-29 12:29S 32°53' E 151°45'0 0.0
2018-May-29 11:59S 32°53' E 151°45'0 0.0
2018-May-29 11:29S 32°53' E 151°45'0 0.0
2018-May-29 10:59S 32°53' E 151°45'0 0.0
2018-May-29 10:29S 32°53' E 151°45'0 0.0
2018-May-29 09:59S 32°53' E 151°45'0 0.0
2018-May-29 09:29S 32°53' E 151°45'0 0.0
2018-May-29 08:59S 32°53' E 151°45'0 0.0
2018-May-29 08:29S 32°53' E 151°45'0 0.0
2018-May-29 07:59S 32°53' E 151°45'0 0.0
2018-May-29 07:29S 32°53' E 151°45'0 0.0
2018-May-29 06:59S 32°53' E 151°45'0 0.0
2018-May-29 06:29S 32°53' E 151°45'0 0.0
2018-May-29 05:59S 32°53' E 151°45'0 0.0
2018-May-29 05:26S 32°53' E 151°45'0 0.0
2018-May-29 04:50S 32°53' E 151°45'0 0.0
2018-May-29 04:29S 32°53' E 151°45'0 0.0
2018-May-29 03:59S 32°53' E 151°45'0 0.0
2018-May-29 03:29S 32°53' E 151°45'0 0.0
2018-May-29 02:59S 32°53' E 151°45'0 0.0
2018-May-29 02:29S 32°53' E 151°45'0 0.0
2018-May-29 01:59S 32°53' E 151°45'0 0.0
2018-May-29 01:29S 32°53' E 151°45'0 0.0
2018-May-29 00:59S 32°53' E 151°45'0 0.0
2018-May-29 00:29S 32°53' E 151°45'0 0.0
2018-May-28 23:59S 32°53' E 151°45'0 0.0
2018-May-28 23:29S 32°53' E 151°45'0 0.0
2018-May-28 22:59S 32°53' E 151°45'0 0.0
2018-May-28 22:29S 32°53' E 151°45'0 0.0
2018-May-28 21:59S 32°53' E 151°45'0 0.0
2018-May-28 21:29S 32°53' E 151°45'0 0.0
2018-May-28 20:59S 32°53' E 151°45'0 0.0
2018-May-28 20:29S 32°53' E 151°45'0 0.0
2018-May-28 19:59S 32°53' E 151°45'0 0.0
2018-May-28 19:29S 32°53' E 151°45'0 0.0
2018-May-28 18:56S 32°53' E 151°45'0 0.0
2018-May-28 18:26S 32°53' E 151°45'0 0.0
2018-May-28 17:59S 32°53' E 151°45'0 0.0
2018-May-28 17:29S 32°53' E 151°45'0 0.0
2018-May-28 16:59S 32°53' E 151°45'0 0.0
2018-May-28 16:29S 32°53' E 151°45'0 0.0
2018-May-28 15:59S 32°53' E 151°45'0 0.0
2018-May-28 15:29S 32°53' E 151°45'0 0.0
2018-May-28 14:59S 32°53' E 151°45'0 0.0
2018-May-28 14:29S 32°53' E 151°45'0 0.0
2018-May-28 13:59S 32°53' E 151°45'0 0.0
2018-May-28 13:29S 32°53' E 151°45'0 0.0
2018-May-28 12:59S 32°53' E 151°45'0 0.4
2018-May-28 12:30S 32°53' E 151°45'1 2.3
2018-May-28 12:00S 32°54' E 151°46'2 3.3
2018-May-28 11:30S 32°55' E 151°48'3 6.6
2018-May-28 11:00S 32°57' E 151°51'2 4.9
2018-May-28 10:30S 32°59' E 151°52'3 6.4
2018-May-28 10:00S 33°02' E 151°55'3 5.2
2018-May-28 09:30S 33°04' E 151°53'2 4.0
2018-May-28 09:01S 33°06' E 151°53'1 1.4
2018-May-28 08:31S 33°06' E 151°54'1 1.1
2018-May-28 08:01S 33°06' E 151°55'1 1.0
2018-May-28 07:28S 33°07' E 151°55'1 2.0
2018-May-28 07:00S 33°08' E 151°55'3 6.4
2018-May-28 06:30S 33°10' E 151°53'9 0.6
2018-May-27 15:26S 33°17' E 152°01'1 2.1
2018-May-27 14:57S 33°16' E 152°02'1 2.4
2018-May-27 14:25S 33°16' E 152°03'1 2.1
2018-May-27 13:58S 33°15' E 152°04'1 2.1
2018-May-27 13:29S 33°15' E 152°05'1 2.4
2018-May-27 12:59S 33°14' E 152°07'1 2.5
2018-May-27 12:30S 33°14' E 152°08'1 2.3
2018-May-27 11:54S 33°13' E 152°09'1 2.1
2018-May-27 11:21S 33°12' E 152°11'1 2.0
2018-May-27 10:51S 33°12' E 152°12'1 2.0
2018-May-27 10:27S 33°12' E 152°13'1 2.2
2018-May-27 09:57S 33°11' E 152°14'1 1.8
2018-May-27 09:15S 33°11' E 152°15'0 1.5
2018-May-27 08:57S 33°10' E 152°16'1 1.6
2018-May-27 08:27S 33°10' E 152°16'1 1.5
2018-May-27 08:00S 33°10' E 152°17'1 1.3
2018-May-27 07:27S 33°09' E 152°18'1 1.2
2018-May-27 07:00S 33°09' E 152°18'1 1.1
2018-May-27 06:27S 33°09' E 152°19'0 1.0
2018-May-27 06:00S 33°08' E 152°19'0 0.9
2018-May-27 05:30S 33°08' E 152°20'0 1.0
2018-May-27 05:00S 33°08' E 152°20'0 1.0
2018-May-27 04:30S 33°07' E 152°20'1 1.3
2018-May-27 03:58S 33°07' E 152°20'3 5.4
2018-May-27 03:30S 33°08' E 152°18'4 7.8
2018-May-27 03:00S 33°11' E 152°15'4 7.6
2018-May-27 02:29S 33°15' E 152°12'4 8.2
2018-May-27 01:59S 33°18' E 152°09'4 8.5
2018-May-27 01:30S 33°21' E 152°07'4 8.6
2018-May-27 01:00S 33°25' E 152°04'4 8.3
2018-May-27 00:30S 33°28' E 152°01'1 2.1
2018-May-26 23:59S 33°29' E 151°60'0 0.8
2018-May-26 23:26S 33°29' E 152°00'14 0.9
2018-May-26 07:34S 33°19' E 152°13'1 9.8
2018-May-26 07:30S 33°18' E 152°12'9 9.5
2018-May-26 06:35S 33°10' E 152°09'3 9.7
2018-May-26 06:19S 33°08' E 152°08'7 8.4
2018-May-26 05:31S 33°01' E 152°08'0 0.1
2018-May-26 04:59S 33°01' E 152°08'0 0.9
2018-May-26 04:29S 33°01' E 152°08'0 0.9
2018-May-26 03:59S 33°02' E 152°08'0 0.8
2018-May-26 03:29S 33°02' E 152°08'0 0.8
2018-May-26 02:59S 33°03' E 152°08'0 0.8
2018-May-26 02:29S 33°03' E 152°08'0 0.6
2018-May-26 01:59S 33°03' E 152°07'0 0.8
2018-May-26 01:29S 33°04' E 152°07'0 0.8
2018-May-26 00:59S 33°04' E 152°07'0 0.6
2018-May-26 00:26S 33°04' E 152°07'0 0.7
2018-May-25 23:56S 33°04' E 152°06'0 0.7
2018-May-25 23:29S 33°05' E 152°06'0 0.8
2018-May-25 22:59S 33°05' E 152°06'1 0.9
2018-May-25 22:23S 33°05' E 152°05'0 0.9
2018-May-25 21:59S 33°06' E 152°05'0 0.7
2018-May-25 21:29S 33°06' E 152°05'0 0.6
2018-May-25 20:59S 33°06' E 152°04'0 0.5
2018-May-25 20:29S 33°06' E 152°04'0 0.6
2018-May-25 19:59S 33°07' E 152°04'0 0.6
2018-May-25 19:26S 33°07' E 152°04'0 0.8
2018-May-25 18:59S 33°07' E 152°04'0 0.7
2018-May-25 18:29S 33°08' E 152°04'0 0.9
2018-May-25 17:59S 33°08' E 152°04'0 0.8
2018-May-25 17:29S 33°09' E 152°04'0 0.8
2018-May-25 16:59S 33°09' E 152°04'0 0.9
2018-May-25 16:29S 33°09' E 152°04'1 0.9
2018-May-25 15:56S 33°10' E 152°04'0 0.9
2018-May-25 15:29S 33°10' E 152°04'0 0.8
2018-May-25 14:59S 33°11' E 152°04'1 1.1
2018-May-25 14:26S 33°11' E 152°04'0 0.9
2018-May-25 13:56S 33°12' E 152°04'0 1.0
2018-May-25 13:26S 33°12' E 152°04'1 1.0
2018-May-25 12:56S 33°13' E 152°04'1 1.1
2018-May-25 12:26S 33°13' E 152°04'1 1.0
2018-May-25 11:56S 33°14' E 152°03'1 1.0
2018-May-25 11:26S 33°14' E 152°03'1 1.1
2018-May-25 10:56S 33°15' E 152°03'0 0.9
2018-May-25 10:26S 33°15' E 152°03'1 0.9
2018-May-25 09:20S 33°16' E 152°03'0 0.7
2018-May-25 08:59S 33°16' E 152°03'1 0.7
2018-May-25 08:08S 33°17' E 152°03'0 0.9
2018-May-25 07:56S 33°17' E 152°03'0 0.7
2018-May-25 07:26S 33°17' E 152°03'1 0.7
2018-May-25 06:11S 33°18' E 152°03'0 0.8
2018-May-25 05:50S 33°18' E 152°03'0 0.8
2018-May-25 05:26S 33°19' E 152°03'8 3.8
2018-May-25 03:24S 33°11' E 152°01'410.2
2018-May-25 03:00S 33°07' E 152°00'510.1
2018-May-25 02:30S 33°02' E 151°59'510.1
2018-May-25 02:00S 32°57' E 151°59'611.6
2018-May-25 01:30S 32°55' E 152°05'611.3
2018-May-25 01:00S 32°52' E 152°11'611.3
2018-May-25 00:30S 32°50' E 152°17'611.5
2018-May-25 00:00S 32°47' E 152°24'611.2
2018-May-24 23:30S 32°44' E 152°29'611.1
2018-May-24 23:00S 32°40' E 152°34'611.3
2018-May-24 22:30S 32°36' E 152°38'611.1
2018-May-24 22:00S 32°32' E 152°42'611.3
2018-May-24 21:30S 32°27' E 152°46'  
Track history (hours):
 
Tides and Currents Weather Stations Pressure Air Temp Water Temp Dewpoint Dewpoint Depression Visibility Wind Speed Wind Dir Waves Ship Positions

Hyundai Komipo

Last reported at 2018-May-30 04:20 UTC. Time now 2018-Jun-21 22:09 UTC.
Position S 32°35' E 152°42'.
Warning: this ship's position is 22 days out of date.

Length 273 m; draft 15.1 m.

Type: Cargo ship. MMSI: 374148000.

Date/timePositionNaut miles runAvg speedWind from/ knotsBaromVisibWave heightAir tempDewpointWater temp
2018-May-30 04:20S 32°35' E 152°42'3 9.6
2018-May-30 04:00S 32°37' E 152°39'5 9.3
2018-May-30 03:30S 32°41' E 152°35'5 9.1
2018-May-30 03:00S 32°44' E 152°32'4 8.9
2018-May-30 02:30S 32°47' E 152°28'4 8.3
2018-May-30 02:00S 32°50' E 152°25'510.5
2018-May-30 01:30S 32°52' E 152°19'611.4
2018-May-30 01:00S 32°54' E 152°13'611.8
2018-May-30 00:30S 32°57' E 152°06'611.9
2018-May-30 00:00S 32°59' E 151°60'611.2
2018-May-29 23:30S 32°60' E 151°53'5 9.3
2018-May-29 23:00S 32°56' E 151°49'2 4.4
2018-May-29 22:30S 32°55' E 151°47'2 3.3
2018-May-29 22:00S 32°54' E 151°46'1 2.5
2018-May-29 21:30S 32°53' E 151°45'0 0.1
2018-May-29 20:58S 32°53' E 151°45'0 0.0
2018-May-29 20:28S 32°53' E 151°45'0 0.0
2018-May-29 19:58S 32°53' E 151°45'0 0.0
2018-May-29 19:28S 32°53' E 151°45'0 0.0
2018-May-29 18:58S 32°53' E 151°45'0 0.0
2018-May-29 18:28S 32°53' E 151°45'0 0.0
2018-May-29 17:58S 32°53' E 151°45'0 0.0
2018-May-29 17:28S 32°53' E 151°45'0 0.0
2018-May-29 16:59S 32°53' E 151°45'0 0.0
2018-May-29 16:30S 32°53' E 151°45'0 0.0
2018-May-29 16:00S 32°53' E 151°45'0 0.0
2018-May-29 15:30S 32°53' E 151°45'0 0.0
2018-May-29 14:59S 32°53' E 151°45'0 0.0
2018-May-29 14:29S 32°53' E 151°45'0 0.0
2018-May-29 13:56S 32°53' E 151°45'0 0.0
2018-May-29 13:29S 32°53' E 151°45'0 0.0
2018-May-29 12:59S 32°53' E 151°45'0 0.0
2018-May-29 12:29S 32°53' E 151°45'0 0.0
2018-May-29 11:59S 32°53' E 151°45'0 0.0
2018-May-29 11:29S 32°53' E 151°45'0 0.0
2018-May-29 10:59S 32°53' E 151°45'0 0.0
2018-May-29 10:29S 32°53' E 151°45'0 0.0
2018-May-29 09:59S 32°53' E 151°45'0 0.0
2018-May-29 09:29S 32°53' E 151°45'0 0.0
2018-May-29 08:59S 32°53' E 151°45'0 0.0
2018-May-29 08:29S 32°53' E 151°45'0 0.0
2018-May-29 07:59S 32°53' E 151°45'0 0.0
2018-May-29 07:29S 32°53' E 151°45'0 0.0
2018-May-29 06:59S 32°53' E 151°45'0 0.0
2018-May-29 06:29S 32°53' E 151°45'0 0.0
2018-May-29 05:59S 32°53' E 151°45'0 0.0
2018-May-29 05:26S 32°53' E 151°45'0 0.0
2018-May-29 04:50S 32°53' E 151°45'0 0.0
2018-May-29 04:29S 32°53' E 151°45'0 0.0
2018-May-29 03:59S 32°53' E 151°45'0 0.0
2018-May-29 03:29S 32°53' E 151°45'0 0.0
2018-May-29 02:59S 32°53' E 151°45'0 0.0
2018-May-29 02:29S 32°53' E 151°45'0 0.0
2018-May-29 01:59S 32°53' E 151°45'0 0.0
2018-May-29 01:29S 32°53' E 151°45'0 0.0
2018-May-29 00:59S 32°53' E 151°45'0 0.0
2018-May-29 00:29S 32°53' E 151°45'0 0.0
2018-May-28 23:59S 32°53' E 151°45'0 0.0
2018-May-28 23:29S 32°53' E 151°45'0 0.0
2018-May-28 22:59S 32°53' E 151°45'0 0.0
2018-May-28 22:29S 32°53' E 151°45'0 0.0
2018-May-28 21:59S 32°53' E 151°45'0 0.0
2018-May-28 21:29S 32°53' E 151°45'0 0.0
2018-May-28 20:59S 32°53' E 151°45'0 0.0
2018-May-28 20:29S 32°53' E 151°45'0 0.0
2018-May-28 19:59S 32°53' E 151°45'0 0.0
2018-May-28 19:29S 32°53' E 151°45'0 0.0
2018-May-28 18:56S 32°53' E 151°45'0 0.0
2018-May-28 18:26S 32°53' E 151°45'0 0.0
2018-May-28 17:59S 32°53' E 151°45'0 0.0
2018-May-28 17:29S 32°53' E 151°45'0 0.0
2018-May-28 16:59S 32°53' E 151°45'0 0.0
2018-May-28 16:29S 32°53' E 151°45'0 0.0
2018-May-28 15:59S 32°53' E 151°45'0 0.0
2018-May-28 15:29S 32°53' E 151°45'0 0.0
2018-May-28 14:59S 32°53' E 151°45'0 0.0
2018-May-28 14:29S 32°53' E 151°45'0 0.0
2018-May-28 13:59S 32°53' E 151°45'0 0.0
2018-May-28 13:29S 32°53' E 151°45'0 0.0
2018-May-28 12:59S 32°53' E 151°45'0 0.4
2018-May-28 12:30S 32°53' E 151°45'1 2.3
2018-May-28 12:00S 32°54' E 151°46'2 3.3
2018-May-28 11:30S 32°55' E 151°48'3 6.6
2018-May-28 11:00S 32°57' E 151°51'2 4.9
2018-May-28 10:30S 32°59' E 151°52'3 6.4
2018-May-28 10:00S 33°02' E 151°55'3 5.2
2018-May-28 09:30S 33°04' E 151°53'2 4.0
2018-May-28 09:01S 33°06' E 151°53'1 1.4
2018-May-28 08:31S 33°06' E 151°54'1 1.1
2018-May-28 08:01S 33°06' E 151°55'1 1.0
2018-May-28 07:28S 33°07' E 151°55'1 2.0
2018-May-28 07:00S 33°08' E 151°55'3 6.4
2018-May-28 06:30S 33°10' E 151°53'9 0.6
2018-May-27 15:26S 33°17' E 152°01'1 2.1
2018-May-27 14:57S 33°16' E 152°02'1 2.4
2018-May-27 14:25S 33°16' E 152°03'1 2.1
2018-May-27 13:58S 33°15' E 152°04'1 2.1
2018-May-27 13:29S 33°15' E 152°05'1 2.4
2018-May-27 12:59S 33°14' E 152°07'1 2.5
2018-May-27 12:30S 33°14' E 152°08'1 2.3
2018-May-27 11:54S 33°13' E 152°09'1 2.1
2018-May-27 11:21S 33°12' E 152°11'1 2.0
2018-May-27 10:51S 33°12' E 152°12'1 2.0
2018-May-27 10:27S 33°12' E 152°13'1 2.2
2018-May-27 09:57S 33°11' E 152°14'1 1.8
2018-May-27 09:15S 33°11' E 152°15'0 1.5
2018-May-27 08:57S 33°10' E 152°16'1 1.6
2018-May-27 08:27S 33°10' E 152°16'1 1.5
2018-May-27 08:00S 33°10' E 152°17'1 1.3
2018-May-27 07:27S 33°09' E 152°18'1 1.2
2018-May-27 07:00S 33°09' E 152°18'1 1.1
2018-May-27 06:27S 33°09' E 152°19'0 1.0
2018-May-27 06:00S 33°08' E 152°19'0 0.9
2018-May-27 05:30S 33°08' E 152°20'0 1.0
2018-May-27 05:00S 33°08' E 152°20'0 1.0
2018-May-27 04:30S 33°07' E 152°20'1 1.3
2018-May-27 03:58S 33°07' E 152°20'3 5.4
2018-May-27 03:30S 33°08' E 152°18'4 7.8
2018-May-27 03:00S 33°11' E 152°15'4 7.6
2018-May-27 02:29S 33°15' E 152°12'4 8.2
2018-May-27 01:59S 33°18' E 152°09'4 8.5
2018-May-27 01:30S 33°21' E 152°07'4 8.6
2018-May-27 01:00S 33°25' E 152°04'4 8.3
2018-May-27 00:30S 33°28' E 152°01'1 2.1
2018-May-26 23:59S 33°29' E 151°60'0 0.8
2018-May-26 23:26S 33°29' E 152°00'14 0.9
2018-May-26 07:34S 33°19' E 152°13'1 9.8
2018-May-26 07:30S 33°18' E 152°12'9 9.5
2018-May-26 06:35S 33°10' E 152°09'3 9.7
2018-May-26 06:19S 33°08' E 152°08'7 8.4
2018-May-26 05:31S 33°01' E 152°08'0 0.1
2018-May-26 04:59S 33°01' E 152°08'0 0.9
2018-May-26 04:29S 33°01' E 152°08'0 0.9
2018-May-26 03:59S 33°02' E 152°08'0 0.8
2018-May-26 03:29S 33°02' E 152°08'0 0.8
2018-May-26 02:59S 33°03' E 152°08'0 0.8
2018-May-26 02:29S 33°03' E 152°08'0 0.6
2018-May-26 01:59S 33°03' E 152°07'0 0.8
2018-May-26 01:29S 33°04' E 152°07'0 0.8
2018-May-26 00:59S 33°04' E 152°07'0 0.6
2018-May-26 00:26S 33°04' E 152°07'0 0.7
2018-May-25 23:56S 33°04' E 152°06'0 0.7
2018-May-25 23:29S 33°05' E 152°06'0 0.8
2018-May-25 22:59S 33°05' E 152°06'1 0.9
2018-May-25 22:23S 33°05' E 152°05'0 0.9
2018-May-25 21:59S 33°06' E 152°05'0 0.7
2018-May-25 21:29S 33°06' E 152°05'0 0.6
2018-May-25 20:59S 33°06' E 152°04'0 0.5
2018-May-25 20:29S 33°06' E 152°04'0 0.6
2018-May-25 19:59S 33°07' E 152°04'0 0.6
2018-May-25 19:26S 33°07' E 152°04'0 0.8
2018-May-25 18:59S 33°07' E 152°04'0 0.7
2018-May-25 18:29S 33°08' E 152°04'0 0.9
2018-May-25 17:59S 33°08' E 152°04'0 0.8
2018-May-25 17:29S 33°09' E 152°04'0 0.8
2018-May-25 16:59S 33°09' E 152°04'0 0.9
2018-May-25 16:29S 33°09' E 152°04'1 0.9
2018-May-25 15:56S 33°10' E 152°04'0 0.9
2018-May-25 15:29S 33°10' E 152°04'0 0.8
2018-May-25 14:59S 33°11' E 152°04'1 1.1
2018-May-25 14:26S 33°11' E 152°04'0 0.9
2018-May-25 13:56S 33°12' E 152°04'0 1.0
2018-May-25 13:26S 33°12' E 152°04'1 1.0
2018-May-25 12:56S 33°13' E 152°04'1 1.1
2018-May-25 12:26S 33°13' E 152°04'1 1.0
2018-May-25 11:56S 33°14' E 152°03'1 1.0
2018-May-25 11:26S 33°14' E 152°03'1 1.1
2018-May-25 10:56S 33°15' E 152°03'0 0.9
2018-May-25 10:26S 33°15' E 152°03'1 0.9
2018-May-25 09:20S 33°16' E 152°03'0 0.7
2018-May-25 08:59S 33°16' E 152°03'1 0.7
2018-May-25 08:08S 33°17' E 152°03'0 0.9
2018-May-25 07:56S 33°17' E 152°03'0 0.7
2018-May-25 07:26S 33°17' E 152°03'1 0.7
2018-May-25 06:11S 33°18' E 152°03'0 0.8
2018-May-25 05:50S 33°18' E 152°03'0 0.8
2018-May-25 05:26S 33°19' E 152°03'8 3.8
2018-May-25 03:24S 33°11' E 152°01'410.2
2018-May-25 03:00S 33°07' E 152°00'510.1
2018-May-25 02:30S 33°02' E 151°59'510.1
2018-May-25 02:00S 32°57' E 151°59'611.6
2018-May-25 01:30S 32°55' E 152°05'611.3
2018-May-25 01:00S 32°52' E 152°11'611.3
2018-May-25 00:30S 32°50' E 152°17'611.5
2018-May-25 00:00S 32°47' E 152°24'611.2
2018-May-24 23:30S 32°44' E 152°29'611.1
2018-May-24 23:00S 32°40' E 152°34'611.3
2018-May-24 22:30S 32°36' E 152°38'611.1
2018-May-24 22:00S 32°32' E 152°42'611.3
2018-May-24 21:30S 32°27' E 152°46'  

Dump ship's entire track history